createdAt,value
2023-01-07T00:00:43.896Z,957.63
2023-01-07T00:01:43.899Z,957.63
2023-01-07T00:02:43.887Z,957.69
2023-01-07T00:03:43.857Z,957.64
2023-01-07T00:04:43.800Z,957.69
2023-01-07T00:05:43.917Z,957.67
2023-01-07T00:06:43.768Z,957.67
2023-01-07T00:07:43.752Z,957.66
2023-01-07T00:08:43.741Z,957.64
2023-01-07T00:09:43.724Z,957.61
2023-01-07T00:10:43.725Z,957.67
2023-01-07T00:11:43.691Z,957.6
2023-01-07T00:12:43.693Z,957.68
2023-01-07T00:13:43.664Z,957.61
2023-01-07T00:14:43.652Z,957.6
2023-01-07T00:15:43.673Z,957.59
2023-01-07T00:16:43.831Z,957.55
2023-01-07T00:17:43.607Z,957.58
2023-01-07T00:18:43.599Z,957.53
2023-01-07T00:19:43.584Z,957.56
2023-01-07T00:20:43.562Z,957.46
2023-01-07T00:21:44.387Z,957.49
2023-01-07T00:22:44.232Z,957.49
2023-01-07T00:23:44.220Z,957.47
2023-01-07T00:24:44.196Z,957.39
2023-01-07T00:25:44.187Z,957.44
2023-01-07T00:26:44.168Z,957.46
2023-01-07T00:27:44.159Z,957.45
2023-01-07T00:28:44.143Z,957.42
2023-01-07T00:29:44.128Z,957.44
2023-01-07T00:30:44.114Z,957.49
2023-01-07T00:31:44.156Z,957.48
2023-01-07T00:32:44.085Z,957.48
2023-01-07T00:33:44.074Z,957.48
2023-01-07T00:34:44.055Z,957.43
2023-01-07T00:35:44.043Z,957.4
2023-01-07T00:36:44.038Z,957.4
2023-01-07T00:37:44.127Z,957.36
2023-01-07T00:38:43.998Z,957.37
2023-01-07T00:39:43.985Z,957.38
2023-01-07T00:40:43.971Z,957.34
2023-01-07T00:41:43.952Z,957.34
2023-01-07T00:42:43.939Z,957.35
2023-01-07T00:43:43.924Z,957.36
2023-01-07T00:44:43.910Z,957.37
2023-01-07T00:45:43.896Z,957.34
2023-01-07T00:46:43.934Z,957.31
2023-01-07T00:47:43.864Z,957.31
2023-01-07T00:48:43.851Z,957.28
2023-01-07T00:49:43.838Z,957.28
2023-01-07T00:50:43.822Z,957.25
2023-01-07T00:51:43.809Z,957.3
2023-01-07T00:52:43.796Z,957.28
2023-01-07T00:53:43.917Z,957.26
2023-01-07T00:54:43.766Z,957.22
2023-01-07T00:55:43.750Z,957.28
2023-01-07T00:56:43.836Z,957.29
2023-01-07T00:57:43.719Z,957.3
2023-01-07T00:58:43.712Z,957.3
2023-01-07T00:59:43.688Z,957.36
2023-01-07T01:00:43.705Z,957.32
2023-01-07T01:01:43.821Z,957.34
2023-01-07T01:02:43.677Z,957.38
2023-01-07T01:03:43.636Z,957.35
2023-01-07T01:04:43.618Z,957.36
2023-01-07T01:05:43.604Z,957.34
2023-01-07T01:06:43.750Z,957.32
2023-01-07T01:07:43.579Z,957.32
2023-01-07T01:08:43.559Z,957.33
2023-01-07T01:09:43.678Z,957.34
2023-01-07T01:10:43.526Z,957.29
2023-01-07T01:11:43.513Z,957.31
2023-01-07T01:12:43.508Z,957.31
2023-01-07T01:13:43.483Z,957.31
2023-01-07T01:14:43.469Z,957.3
2023-01-07T01:15:43.590Z,957.33
2023-01-07T01:16:43.595Z,957.3
2023-01-07T01:17:43.558Z,957.31
2023-01-07T01:18:43.544Z,957.31
2023-01-07T01:19:43.530Z,957.38
2023-01-07T01:20:43.520Z,957.35
2023-01-07T01:21:43.508Z,957.36
2023-01-07T01:22:43.491Z,957.39
2023-01-07T01:23:43.478Z,957.4
2023-01-07T01:24:43.462Z,957.41
2023-01-07T01:25:43.568Z,957.39
2023-01-07T01:26:43.424Z,957.38
2023-01-07T01:27:43.411Z,957.39
2023-01-07T01:28:43.410Z,957.35
2023-01-07T01:29:43.380Z,957.38
2023-01-07T01:30:43.369Z,957.37
2023-01-07T01:31:43.515Z,957.33
2023-01-07T01:32:43.335Z,957.3
2023-01-07T01:33:43.329Z,957.3
2023-01-07T01:34:43.304Z,957.24
2023-01-07T01:35:43.290Z,957.28
2023-01-07T01:36:43.379Z,957.25
2023-01-07T01:37:43.682Z,957.25
2023-01-07T01:38:43.664Z,957.23
2023-01-07T01:39:43.657Z,957.25
2023-01-07T01:40:43.638Z,957.26
2023-01-07T01:41:43.744Z,957.26
2023-01-07T01:42:43.607Z,957.24
2023-01-07T01:43:43.593Z,957.21
2023-01-07T01:44:43.579Z,957.19
2023-01-07T01:45:43.563Z,957.23
2023-01-07T01:46:43.579Z,957.23
2023-01-07T01:47:43.534Z,957.17
2023-01-07T01:48:43.516Z,957.2
2023-01-07T01:49:43.501Z,957.19
2023-01-07T01:50:43.491Z,957.2
2023-01-07T01:51:43.474Z,957.18
2023-01-07T01:52:43.461Z,957.18
2023-01-07T01:53:43.445Z,957.15
2023-01-07T01:54:43.426Z,957.13
2023-01-07T01:55:43.436Z,957.11
2023-01-07T01:56:43.398Z,957.1
2023-01-07T01:57:43.503Z,957.11
2023-01-07T01:58:43.389Z,957.06
2023-01-07T01:59:43.365Z,957.09
2023-01-07T02:00:43.389Z,957.07
2023-01-07T02:01:43.474Z,957.08
2023-01-07T02:02:43.365Z,957.06
2023-01-07T02:03:43.292Z,957.07
2023-01-07T02:04:43.277Z,957.12
2023-01-07T02:05:43.277Z,957.11
2023-01-07T02:06:43.353Z,957.05
2023-01-07T02:07:43.230Z,957.09
2023-01-07T02:08:43.219Z,957.09
2023-01-07T02:09:43.204Z,957.09
2023-01-07T02:10:43.187Z,957.12
2023-01-07T02:11:43.274Z,957.12
2023-01-07T02:12:43.157Z,957.13
2023-01-07T02:13:43.267Z,957.12
2023-01-07T02:14:43.129Z,957.15
2023-01-07T02:15:43.110Z,957.13
2023-01-07T02:16:43.177Z,957.15
2023-01-07T02:17:43.097Z,957.1
2023-01-07T02:18:43.073Z,957.11
2023-01-07T02:19:43.063Z,957.08
2023-01-07T02:20:43.040Z,957.07
2023-01-07T02:21:43.027Z,957.08
2023-01-07T02:22:43.008Z,957.04
2023-01-07T02:23:42.990Z,957.1
2023-01-07T02:24:42.977Z,957.08
2023-01-07T02:25:42.960Z,957.02
2023-01-07T02:26:42.947Z,957
2023-01-07T02:27:42.932Z,957
2023-01-07T02:28:42.930Z,956.98
2023-01-07T02:29:43.021Z,956.99
2023-01-07T02:30:42.888Z,957
2023-01-07T02:31:42.903Z,957.01
2023-01-07T02:32:42.871Z,956.96
2023-01-07T02:33:42.841Z,956.93
2023-01-07T02:34:42.829Z,956.95
2023-01-07T02:35:42.813Z,956.88
2023-01-07T02:36:42.797Z,956.92
2023-01-07T02:37:42.780Z,956.92
2023-01-07T02:38:42.767Z,956.86
2023-01-07T02:39:42.751Z,956.86
2023-01-07T02:40:42.739Z,956.82
2023-01-07T02:41:42.736Z,956.84
2023-01-07T02:42:42.713Z,956.83
2023-01-07T02:43:42.693Z,956.83
2023-01-07T02:44:42.679Z,956.84
2023-01-07T02:45:42.837Z,956.82
2023-01-07T02:46:42.750Z,956.82
2023-01-07T02:47:42.632Z,956.79
2023-01-07T02:48:42.621Z,956.85
2023-01-07T02:49:42.601Z,956.87
2023-01-07T02:50:42.598Z,956.89
2023-01-07T02:51:42.571Z,956.86
2023-01-07T02:52:42.559Z,956.88
2023-01-07T02:53:42.542Z,956.92
2023-01-07T02:54:42.528Z,956.85
2023-01-07T02:55:42.516Z,956.87
2023-01-07T02:56:42.498Z,956.82
2023-01-07T02:57:42.484Z,956.84
2023-01-07T02:58:42.470Z,956.78
2023-01-07T02:59:42.455Z,956.78
2023-01-07T03:00:42.451Z,956.77
2023-01-07T03:01:42.703Z,956.72
2023-01-07T03:02:42.409Z,956.73
2023-01-07T03:03:42.521Z,956.74
2023-01-07T03:04:43.292Z,956.74
2023-01-07T03:05:43.276Z,956.75
2023-01-07T03:06:43.258Z,956.76
2023-01-07T03:07:43.246Z,956.73
2023-01-07T03:08:43.229Z,956.71
2023-01-07T03:09:43.220Z,956.71
2023-01-07T03:10:43.200Z,956.72
2023-01-07T03:11:43.189Z,956.69
2023-01-07T03:12:43.168Z,956.72
2023-01-07T03:13:43.155Z,956.71
2023-01-07T03:14:43.140Z,956.71
2023-01-07T03:15:43.125Z,956.74
2023-01-07T03:16:43.183Z,956.73
2023-01-07T03:17:43.223Z,956.74
2023-01-07T03:18:43.077Z,956.75
2023-01-07T03:19:43.084Z,956.76
2023-01-07T03:20:43.049Z,956.76
2023-01-07T03:21:43.033Z,956.71
2023-01-07T03:22:43.021Z,956.74
2023-01-07T03:23:43.005Z,956.71
2023-01-07T03:24:42.986Z,956.69
2023-01-07T03:25:42.975Z,956.67
2023-01-07T03:26:42.989Z,956.64
2023-01-07T03:27:42.945Z,956.61
2023-01-07T03:28:42.927Z,956.62
2023-01-07T03:29:42.921Z,956.62
2023-01-07T03:30:42.896Z,956.64
2023-01-07T03:31:42.949Z,956.61
2023-01-07T03:32:42.868Z,956.65
2023-01-07T03:50:01.767Z,956.46
2023-01-07T03:51:01.621Z,956.52
2023-01-07T03:52:01.606Z,956.51
2023-01-07T03:53:01.588Z,956.5
2023-01-07T03:54:01.564Z,956.47
2023-01-07T03:55:01.547Z,956.48
2023-01-07T03:56:01.530Z,956.49
2023-01-07T03:57:01.513Z,956.46
2023-01-07T03:58:01.506Z,956.45
2023-01-07T03:59:01.481Z,956.46
2023-01-07T04:00:01.460Z,956.52
2023-01-07T04:01:01.540Z,956.49
2023-01-07T04:02:01.618Z,956.51
2023-01-07T04:03:01.416Z,956.5
2023-01-07T04:04:03.273Z,956.54
2023-01-07T04:05:01.382Z,956.52
2023-01-07T04:06:01.485Z,956.48
2023-01-07T04:07:01.351Z,956.48
2023-01-07T04:08:01.333Z,956.45
2023-01-07T04:09:01.318Z,956.45
2023-01-07T04:10:01.305Z,956.46
2023-01-07T04:11:01.304Z,956.45
2023-01-07T04:12:01.277Z,956.4
2023-01-07T04:13:01.259Z,956.37
2023-01-07T04:14:01.267Z,956.39
2023-01-07T04:15:01.234Z,956.44
2023-01-07T04:16:01.248Z,956.36
2023-01-07T04:17:01.194Z,956.39
2023-01-07T04:18:01.180Z,956.37
2023-01-07T04:19:01.168Z,956.34
2023-01-07T04:20:01.152Z,956.32
2023-01-07T04:21:01.135Z,956.32
2023-01-07T04:22:01.238Z,956.31
2023-01-07T04:23:01.104Z,956.3
2023-01-07T04:24:01.096Z,956.29
2023-01-07T04:25:01.080Z,956.26
2023-01-07T04:26:01.060Z,956.25
2023-01-07T04:27:01.050Z,956.26
2023-01-07T04:28:01.025Z,956.24
2023-01-07T04:29:01.015Z,956.2
2023-01-07T04:30:01.012Z,956.24
2023-01-07T04:31:01.084Z,956.21
2023-01-07T04:32:00.980Z,956.21
2023-01-07T04:33:00.954Z,956.18
2023-01-07T04:34:00.934Z,956.14
2023-01-07T04:35:00.925Z,956.14
2023-01-07T04:36:00.904Z,956.18
2023-01-07T04:37:00.891Z,956.25
2023-01-07T04:38:00.997Z,956.18
2023-01-07T04:39:00.859Z,956.2
2023-01-07T04:40:00.853Z,956.24
2023-01-07T04:41:00.837Z,956.21
2023-01-07T04:42:00.821Z,956.22
2023-01-07T04:43:00.806Z,956.22
2023-01-07T04:44:00.784Z,956.21
2023-01-07T04:45:00.768Z,956.18
2023-01-07T04:46:00.878Z,956.23
2023-01-07T04:47:00.739Z,956.23
2023-01-07T04:48:00.725Z,956.21
2023-01-07T04:49:00.708Z,956.2
2023-01-07T04:50:00.714Z,956.18
2023-01-07T04:51:00.688Z,956.17
2023-01-07T04:52:00.666Z,956.21
2023-01-07T04:53:00.653Z,956.17
2023-01-07T04:54:00.660Z,956.13
2023-01-07T04:55:00.629Z,956.13
2023-01-07T04:56:00.606Z,956.12
2023-01-07T04:57:00.595Z,956.09
2023-01-07T04:58:00.841Z,956.14
2023-01-07T04:59:00.810Z,956.1
2023-01-07T05:00:00.809Z,956.08
2023-01-07T05:01:00.878Z,956.07
2023-01-07T05:02:00.876Z,956.06
2023-01-07T05:03:00.750Z,956.07
2023-01-07T05:04:00.805Z,956.05
2023-01-07T05:05:00.753Z,956.05
2023-01-07T05:06:00.710Z,956.07
2023-01-07T05:07:00.696Z,956.04
2023-01-07T05:08:00.679Z,955.97
2023-01-07T05:09:00.664Z,955.98
2023-01-07T05:10:00.772Z,955.98
2023-01-07T05:11:00.631Z,956
2023-01-07T05:12:00.619Z,955.96
2023-01-07T05:13:00.607Z,955.96
2023-01-07T05:14:00.585Z,955.96
2023-01-07T05:15:00.577Z,955.9
2023-01-07T05:16:00.557Z,955.94
2023-01-07T05:17:00.657Z,955.97
2023-01-07T05:18:00.531Z,956
2023-01-07T05:19:00.522Z,956.01
2023-01-07T05:20:00.495Z,956
2023-01-07T05:21:00.480Z,956.03
2023-01-07T05:22:01.030Z,956
2023-01-07T05:23:00.454Z,955.97
2023-01-07T05:24:00.438Z,956
2023-01-07T05:25:00.420Z,956.04
2023-01-07T05:26:00.533Z,956.01
2023-01-07T05:27:00.391Z,956
2023-01-07T05:28:00.377Z,956.01
2023-01-07T05:29:00.377Z,955.97
2023-01-07T05:30:00.350Z,955.95
2023-01-07T05:31:00.421Z,956.01
2023-01-07T05:32:00.317Z,956
2023-01-07T05:33:00.301Z,955.92
2023-01-07T05:34:00.297Z,955.92
2023-01-07T05:35:00.272Z,955.96
2023-01-07T05:36:00.273Z,955.92
2023-01-07T05:37:00.242Z,955.93
2023-01-07T05:38:00.228Z,955.94
2023-01-07T05:39:00.211Z,955.91
2023-01-07T05:40:01.194Z,955.97
2023-01-07T05:41:01.177Z,955.97
2023-01-07T05:42:01.275Z,955.98
2023-01-07T05:43:01.150Z,955.96
2023-01-07T05:44:01.149Z,955.92
2023-01-07T05:45:01.107Z,955.91
2023-01-07T05:46:01.130Z,955.98
2023-01-07T05:47:01.079Z,955.95
2023-01-07T05:48:01.063Z,955.93
2023-01-07T05:49:01.046Z,955.93
2023-01-07T05:50:01.030Z,955.91
2023-01-07T05:51:01.014Z,955.97
2023-01-07T05:52:01.017Z,955.95
2023-01-07T05:53:00.987Z,955.93
2023-01-07T05:54:00.969Z,955.95
2023-01-07T05:55:00.964Z,955.97
2023-01-07T05:56:00.938Z,955.95
2023-01-07T05:57:00.922Z,955.99
2023-01-07T05:58:01.031Z,955.99
2023-01-07T05:59:00.896Z,955.93
2023-01-07T06:00:00.885Z,955.93
2023-01-07T06:01:01.827Z,955.94
2023-01-07T06:02:01.733Z,955.92
2023-01-07T06:03:01.721Z,955.9
2023-01-07T06:04:01.702Z,955.95
2023-01-07T06:05:01.845Z,955.93
2023-01-07T06:06:01.674Z,955.91
2023-01-07T06:07:01.661Z,955.91
2023-01-07T06:08:01.652Z,955.93
2023-01-07T06:09:01.630Z,955.92
2023-01-07T06:10:03.025Z,955.95
2023-01-07T06:11:01.600Z,955.97
2023-01-07T06:12:01.583Z,955.95
2023-01-07T06:13:01.571Z,955.99
2023-01-07T06:14:01.686Z,955.92
2023-01-07T06:15:01.539Z,955.93
2023-01-07T06:16:01.680Z,955.93
2023-01-07T06:17:01.509Z,955.86
2023-01-07T06:18:01.493Z,955.85
2023-01-07T06:19:01.478Z,955.87
2023-01-07T06:20:01.472Z,955.82
2023-01-07T06:21:01.448Z,955.81
2023-01-07T06:22:01.485Z,955.83
2023-01-07T06:23:01.420Z,955.9
2023-01-07T06:24:01.405Z,955.85
2023-01-07T06:25:01.386Z,955.84
2023-01-07T06:26:01.378Z,955.82
2023-01-07T06:27:01.356Z,955.85
2023-01-07T06:28:01.348Z,955.85
2023-01-07T06:29:01.329Z,955.85
2023-01-07T06:30:01.458Z,955.89
2023-01-07T06:31:01.357Z,955.83
2023-01-07T06:32:01.286Z,955.85
2023-01-07T06:33:01.271Z,955.81
2023-01-07T06:34:01.253Z,955.81
2023-01-07T06:35:01.234Z,955.81
2023-01-07T06:36:01.227Z,955.82
2023-01-07T06:37:01.206Z,955.81
2023-01-07T06:38:01.190Z,955.8
2023-01-07T06:39:01.173Z,955.75
2023-01-07T06:40:01.183Z,955.74
2023-01-07T06:41:01.162Z,955.69
2023-01-07T06:42:01.131Z,955.68
2023-01-07T06:43:01.116Z,955.69
2023-01-07T06:44:01.100Z,955.65
2023-01-07T06:45:01.098Z,955.7
2023-01-07T06:46:01.276Z,955.67
2023-01-07T06:47:01.054Z,955.69
2023-01-07T06:48:01.056Z,955.69
2023-01-07T06:49:01.028Z,955.64
2023-01-07T06:50:01.027Z,955.67
2023-01-07T06:51:00.994Z,955.66
2023-01-07T06:52:00.979Z,955.69
2023-01-07T06:53:00.969Z,955.67
2023-01-07T06:54:00.951Z,955.67
2023-01-07T06:55:00.931Z,955.69
2023-01-07T06:56:00.931Z,955.65
2023-01-07T06:57:00.903Z,955.66
2023-01-07T06:58:00.888Z,955.65
2023-01-07T06:59:00.876Z,955.65
2023-01-07T07:00:00.859Z,955.6
2023-01-07T07:01:00.909Z,955.52
2023-01-07T07:02:00.980Z,955.57
2023-01-07T07:03:00.835Z,955.56
2023-01-07T07:04:00.797Z,955.57
2023-01-07T07:05:00.780Z,955.54
2023-01-07T07:06:00.769Z,955.56
2023-01-07T07:07:00.757Z,955.54
2023-01-07T07:08:00.738Z,955.58
2023-01-07T07:09:00.725Z,955.59
2023-01-07T07:10:00.775Z,955.54
2023-01-07T07:11:00.697Z,955.55
2023-01-07T07:12:00.679Z,955.6
2023-01-07T07:13:00.668Z,955.61
2023-01-07T07:14:00.652Z,955.57
2023-01-07T07:15:00.658Z,955.57
2023-01-07T07:16:00.717Z,955.54
2023-01-07T07:17:00.602Z,955.55
2023-01-07T07:18:00.703Z,955.57
2023-01-07T07:19:00.574Z,955.53
2023-01-07T07:20:00.595Z,955.54
2023-01-07T07:21:00.552Z,955.58
2023-01-07T07:22:00.538Z,955.55
2023-01-07T07:23:00.514Z,955.6
2023-01-07T07:24:00.543Z,955.59
2023-01-07T07:25:00.513Z,955.58
2023-01-07T07:26:00.659Z,955.61
2023-01-07T07:27:00.657Z,955.54
2023-01-07T07:28:00.628Z,955.6
2023-01-07T07:29:00.617Z,955.57
2023-01-07T07:30:00.599Z,955.56
2023-01-07T07:31:00.660Z,955.54
2023-01-07T07:32:00.574Z,955.59
2023-01-07T07:33:00.556Z,955.55
2023-01-07T07:34:00.668Z,955.56
2023-01-07T07:35:00.525Z,955.58
2023-01-07T07:36:00.510Z,955.58
2023-01-07T07:37:00.497Z,955.55
2023-01-07T07:38:00.486Z,955.59
2023-01-07T07:39:00.466Z,955.52
2023-01-07T07:40:00.451Z,955.54
2023-01-07T07:41:00.440Z,955.55
2023-01-07T07:42:00.421Z,955.53
2023-01-07T07:43:09.849Z,955.51
2023-01-07T07:44:00.392Z,955.53
2023-01-07T07:45:00.379Z,955.55
2023-01-07T07:46:00.372Z,955.51
2023-01-07T07:47:00.349Z,955.53
2023-01-07T07:48:00.332Z,955.55
2023-01-07T07:49:00.319Z,955.56
2023-01-07T07:50:00.328Z,955.58
2023-01-07T07:51:00.289Z,955.56
2023-01-07T07:52:00.287Z,955.55
2023-01-07T07:53:00.259Z,955.57
2023-01-07T07:54:00.249Z,955.51
2023-01-07T07:55:19.647Z,955.52
2023-01-07T07:56:00.214Z,955.52
2023-01-07T07:57:00.201Z,955.55
2023-01-07T07:58:00.185Z,955.55
2023-01-07T07:59:00.172Z,955.56
2023-01-07T08:00:00.215Z,955.58
2023-01-07T08:01:00.245Z,955.58
2023-01-07T08:02:00.209Z,955.61
2023-01-07T08:03:00.207Z,955.56
2023-01-07T08:04:00.097Z,955.6
2023-01-07T08:05:00.101Z,955.6
2023-01-07T08:06:00.197Z,955.56
2023-01-07T08:07:00.055Z,955.6
2023-01-07T08:08:00.038Z,955.57
2023-01-07T08:09:00.041Z,955.59
2023-01-07T08:10:00.016Z,955.59
2023-01-07T08:11:00.006Z,955.58
2023-01-07T08:11:59.992Z,955.56
2023-01-07T08:12:59.966Z,955.56
2023-01-07T08:13:59.953Z,955.52
2023-01-07T08:14:59.939Z,955.51
2023-01-07T08:15:59.979Z,955.47
2023-01-07T08:16:59.912Z,955.47
2023-01-07T08:17:59.902Z,955.48
2023-01-07T08:18:59.880Z,955.45
2023-01-07T08:19:59.866Z,955.46
2023-01-07T08:20:59.855Z,955.5
2023-01-07T08:21:59.953Z,955.47
2023-01-07T08:22:59.833Z,955.45
2023-01-07T08:23:59.809Z,955.47
2023-01-07T08:24:59.793Z,955.48
2023-01-07T08:25:59.778Z,955.48
2023-01-07T08:26:59.762Z,955.47
2023-01-07T08:27:59.750Z,955.45
2023-01-07T08:28:59.746Z,955.46
2023-01-07T08:29:59.731Z,955.46
2023-01-07T08:30:59.730Z,955.42
2023-01-07T08:31:59.692Z,955.4
2023-01-07T08:32:59.676Z,955.42
2023-01-07T08:33:59.666Z,955.42
2023-01-07T08:34:59.649Z,955.39
2023-01-07T08:35:59.636Z,955.45
2023-01-07T08:36:59.655Z,955.43
2023-01-07T08:37:59.731Z,955.4
2023-01-07T08:38:59.590Z,955.42
2023-01-07T08:39:59.578Z,955.45
2023-01-07T08:40:59.565Z,955.42
2023-01-07T08:41:59.549Z,955.43
2023-01-07T08:42:59.536Z,955.44
2023-01-07T08:43:59.520Z,955.36
2023-01-07T08:44:59.503Z,955.34
2023-01-07T08:45:59.491Z,955.38
2023-01-07T08:46:59.497Z,955.36
2023-01-07T08:47:59.463Z,955.34
2023-01-07T08:48:59.447Z,955.36
2023-01-07T08:49:59.435Z,955.3
2023-01-07T08:50:59.421Z,955.31
2023-01-07T08:51:59.413Z,955.31
2023-01-07T08:52:59.740Z,955.33
2023-01-07T08:53:59.848Z,955.32
2023-01-07T08:54:59.709Z,955.3
2023-01-07T08:55:59.697Z,955.32
2023-01-07T08:56:59.683Z,955.31
2023-01-07T08:57:59.667Z,955.32
2023-01-07T08:58:59.660Z,955.3
2023-01-07T08:59:59.649Z,955.28
2023-01-07T09:00:59.730Z,955.3
2023-01-07T09:01:59.734Z,955.27
2023-01-07T09:02:59.603Z,955.27
2023-01-07T09:03:59.583Z,955.25
2023-01-07T09:04:59.581Z,955.2
2023-01-07T09:05:59.554Z,955.21
2023-01-07T09:06:59.542Z,955.19
2023-01-07T09:07:59.527Z,955.18
2023-01-07T09:08:59.512Z,955.11
2023-01-07T09:09:59.624Z,955.11
2023-01-07T09:10:59.487Z,955.13
2023-01-07T09:11:59.474Z,955.1
2023-01-07T09:12:59.456Z,955.06
2023-01-07T09:13:59.442Z,955.09
2023-01-07T09:15:00.485Z,955.11
2023-01-07T09:16:00.482Z,955.09
2023-01-07T09:17:00.452Z,955.1
2023-01-07T09:18:00.430Z,955.13
2023-01-07T09:19:00.428Z,955.07
2023-01-07T09:20:00.397Z,955.1
2023-01-07T09:21:00.512Z,955.11
2023-01-07T09:22:00.368Z,955.07
2023-01-07T09:23:00.363Z,955.09
2023-01-07T09:24:00.339Z,955.09
2023-01-07T09:25:00.339Z,955.08
2023-01-07T09:26:00.335Z,955.12
2023-01-07T09:27:00.296Z,955.11
2023-01-07T09:28:00.285Z,955.06
2023-01-07T09:29:00.269Z,955.03
2023-01-07T09:30:00.267Z,955.11
2023-01-07T09:31:00.243Z,955.05
2023-01-07T09:32:00.236Z,955.05
2023-01-07T09:33:00.215Z,955.06
2023-01-07T09:34:00.196Z,955.09
2023-01-07T09:35:00.186Z,955.1
2023-01-07T09:36:00.170Z,955.1
2023-01-07T09:37:00.157Z,955.08
2023-01-07T09:38:00.143Z,955.08
2023-01-07T09:39:00.130Z,955.07
2023-01-07T09:40:00.125Z,955.06
2023-01-07T09:41:00.122Z,955.04
2023-01-07T09:42:00.214Z,954.99
2023-01-07T09:43:00.079Z,954.97
2023-01-07T09:44:01.894Z,954.96
2023-01-07T09:45:00.047Z,954.94
2023-01-07T09:46:00.091Z,954.95
2023-01-07T09:47:00.028Z,954.92
2023-01-07T09:48:00.006Z,954.9
2023-01-07T09:48:59.999Z,954.88
2023-01-07T09:49:59.982Z,954.85
2023-01-07T09:50:59.963Z,954.85
2023-01-07T09:51:59.952Z,954.87
2023-01-07T09:52:59.939Z,954.88
2023-01-07T09:53:59.923Z,954.86
2023-01-07T09:54:59.910Z,954.86
2023-01-07T09:56:10.154Z,954.86
2023-01-07T09:56:59.887Z,954.84
2023-01-07T09:57:59.997Z,954.8
2023-01-07T09:58:59.855Z,954.8
2023-01-07T09:59:59.841Z,954.79
2023-01-07T10:00:59.854Z,954.75
2023-01-07T10:01:59.816Z,954.72
2023-01-07T10:02:59.888Z,954.72
2023-01-07T10:03:59.860Z,954.68
2023-01-07T10:04:59.774Z,954.69
2023-01-07T10:05:59.762Z,954.69
2023-01-07T10:06:59.744Z,954.71
2023-01-07T10:08:29.593Z,954.7
2023-01-07T10:08:59.722Z,954.68
2023-01-07T10:09:59.708Z,954.66
2023-01-07T10:10:59.691Z,954.66
2023-01-07T10:11:59.680Z,954.67
2023-01-07T10:12:59.664Z,954.65
2023-01-07T10:13:59.773Z,954.68
2023-01-07T10:14:59.637Z,954.63
2023-01-07T10:15:59.634Z,954.65
2023-01-07T10:16:59.610Z,954.61
2023-01-07T10:17:59.599Z,954.65
2023-01-07T10:18:59.587Z,954.62
2023-01-07T10:19:59.573Z,954.62
2023-01-07T10:20:59.557Z,954.57
2023-01-07T10:21:59.555Z,954.54
2023-01-07T10:22:59.534Z,954.54
2023-01-07T10:23:59.522Z,954.52
2023-01-07T10:24:59.503Z,954.5
2023-01-07T10:25:59.500Z,954.48
2023-01-07T10:26:59.476Z,954.47
2023-01-07T10:27:59.466Z,954.49
2023-01-07T10:28:59.450Z,954.42
2023-01-07T10:29:59.557Z,954.41
2023-01-07T10:30:59.423Z,954.43
2023-01-07T10:31:59.459Z,954.39
2023-01-07T10:32:59.399Z,954.4
2023-01-07T10:33:59.386Z,954.36
2023-01-07T10:34:59.401Z,954.32
2023-01-07T10:35:59.364Z,954.34
2023-01-07T10:36:59.345Z,954.29
2023-01-07T10:37:59.344Z,954.27
2023-01-07T10:38:59.319Z,954.25
2023-01-07T10:39:59.304Z,954.22
2023-01-07T10:40:59.290Z,954.21
2023-01-07T10:41:59.601Z,954.21
2023-01-07T10:42:59.587Z,954.21
2023-01-07T10:43:59.573Z,954.21
2023-01-07T10:44:59.561Z,954.2
2023-01-07T10:45:59.727Z,954.19
2023-01-07T10:46:59.533Z,954.2
2023-01-07T10:47:59.520Z,954.19
2023-01-07T10:48:59.506Z,954.19
2023-01-07T10:49:59.498Z,954.16
2023-01-07T10:50:59.481Z,954.12
2023-01-07T10:51:59.467Z,954.17
2023-01-07T10:52:59.468Z,954.12
2023-01-07T10:53:59.439Z,954.09
2023-01-07T10:54:59.430Z,954.05
2023-01-07T10:55:59.411Z,954.09
2023-01-07T10:56:59.399Z,954.09
2023-01-07T10:57:59.389Z,954.09
2023-01-07T10:58:59.378Z,954.09
2023-01-07T10:59:59.358Z,954.05
2023-01-07T11:00:59.511Z,954.06
2023-01-07T11:01:59.598Z,954.03
2023-01-07T11:02:59.383Z,953.98
2023-01-07T11:03:59.309Z,953.99
2023-01-07T11:04:59.294Z,954
2023-01-07T11:05:59.280Z,953.98
2023-01-07T11:06:59.291Z,953.92
2023-01-07T11:07:59.252Z,953.93
2023-01-07T11:08:59.252Z,953.89
2023-01-07T11:09:59.230Z,953.89
2023-01-07T11:10:59.222Z,953.9
2023-01-07T11:11:59.204Z,953.9
2023-01-07T11:12:59.193Z,953.89
2023-01-07T11:13:59.177Z,953.84
2023-01-07T11:14:59.164Z,953.88
2023-01-07T11:15:59.155Z,953.85
2023-01-07T11:16:59.140Z,953.8
2023-01-07T11:17:59.246Z,953.82
2023-01-07T11:18:59.113Z,953.82
2023-01-07T11:19:59.097Z,953.78
2023-01-07T11:20:59.094Z,953.75
2023-01-07T11:21:59.072Z,953.75
2023-01-07T11:22:59.060Z,953.75
2023-01-07T11:23:59.048Z,953.75
2023-01-07T11:24:59.032Z,953.75
2023-01-07T11:25:59.026Z,953.75
2023-01-07T11:26:59.010Z,953.7
2023-01-07T11:27:58.992Z,953.72
2023-01-07T11:28:58.987Z,953.67
2023-01-07T11:29:58.966Z,953.68
2023-01-07T11:30:58.962Z,953.63
2023-01-07T11:31:58.993Z,953.64
2023-01-07T11:32:58.934Z,953.64
2023-01-07T11:34:01.018Z,953.63
2023-01-07T11:34:58.915Z,953.63
2023-01-07T11:35:58.891Z,953.65
2023-01-07T11:36:58.883Z,953.64
2023-01-07T11:37:58.864Z,953.56
2023-01-07T11:38:58.851Z,953.55
2023-01-07T11:39:58.848Z,953.54
2023-01-07T11:40:59.879Z,953.55
2023-01-07T11:41:58.813Z,953.55
2023-01-07T11:42:58.807Z,953.55
2023-01-07T11:43:58.789Z,953.54
2023-01-07T11:44:58.773Z,953.5
2023-01-07T11:46:18.859Z,953.5
2023-01-07T11:46:58.791Z,953.51
2023-01-07T11:47:58.737Z,953.45
2023-01-07T11:48:58.720Z,953.45
2023-01-07T11:49:58.832Z,953.48
2023-01-07T11:50:58.694Z,953.4
2023-01-07T11:51:58.706Z,953.4
2023-01-07T11:52:58.682Z,953.39
2023-01-07T11:53:58.659Z,953.38
2023-01-07T11:54:58.658Z,953.34
2023-01-07T11:55:58.632Z,953.37
2023-01-07T11:56:58.619Z,953.35
2023-01-07T11:58:27.889Z,953.33
2023-01-07T11:58:58.593Z,953.27
2023-01-07T11:59:58.581Z,953.31
2023-01-07T12:00:58.588Z,953.28
2023-01-07T12:01:58.603Z,953.23
2023-01-07T12:02:58.541Z,953.26
2023-01-07T12:03:58.530Z,953.27
2023-01-07T12:04:58.515Z,953.2
2023-01-07T12:05:58.571Z,953.15
2023-01-07T12:06:58.544Z,953.14
2023-01-07T12:07:58.512Z,953.13
2023-01-07T12:08:58.504Z,953.06
2023-01-07T12:09:58.490Z,953.1
2023-01-07T12:10:58.479Z,953.11
2023-01-07T12:11:58.472Z,953.02
2023-01-07T12:12:58.448Z,953.02
2023-01-07T12:13:58.436Z,953.09
2023-01-07T12:14:58.427Z,953.03
2023-01-07T12:15:58.415Z,953.02
2023-01-07T12:16:58.400Z,952.99
2023-01-07T12:17:58.381Z,952.99
2023-01-07T12:18:58.369Z,952.94
2023-01-07T12:19:58.357Z,952.95
2023-01-07T12:20:58.341Z,952.94
2023-01-07T12:21:58.454Z,952.92
2023-01-07T12:22:58.649Z,952.97
2023-01-07T12:23:58.300Z,952.93
2023-01-07T12:24:58.291Z,952.92
2023-01-07T12:25:58.275Z,952.9
2023-01-07T12:26:58.263Z,952.92
2023-01-07T12:27:58.247Z,952.89
2023-01-07T12:28:58.235Z,952.88
2023-01-07T12:29:58.226Z,952.88
2023-01-07T12:30:58.215Z,952.88
2023-01-07T12:31:58.193Z,952.75
2023-01-07T12:32:58.179Z,952.79
2023-01-07T12:33:58.170Z,952.76
2023-01-07T12:34:58.161Z,952.78
2023-01-07T12:35:58.241Z,952.71
2023-01-07T12:36:58.135Z,952.71
2023-01-07T12:37:58.236Z,952.7
2023-01-07T12:38:58.101Z,952.72
2023-01-07T12:39:58.084Z,952.71
2023-01-07T12:40:58.091Z,952.67
2023-01-07T12:41:58.079Z,952.66
2023-01-07T12:42:58.047Z,952.62
2023-01-07T12:43:58.187Z,952.61
2023-01-07T12:44:58.020Z,952.6
2023-01-07T12:45:58.086Z,952.58
2023-01-07T12:47:30.130Z,952.52
2023-01-07T12:47:57.976Z,952.54